• Join FlightAware (Why Join?)
  • Login
  • US Flag 
07:50PM EDT


 

Airport Tracker/Info


-or-


 

Live Flight TrackerFlight Track Log ✈ N521LL ✈ 14-Jun-2013 ✈ KLBB - KOMA

Flight Track Log - Related Links

Times and Time Zones

All times are in EDT time to prevent confusion due to time zone crossing. See the N521LL flight status page for this flight to view local times or setup timezone preferences in your user account.

Time Position Orientation Groundspeed Altitude Reporting Facility
EDT Latitude Longitude Course Direction KTS MPH feet Rate Location/Type
04:04PM 33.6361 -101.8317 190° South 181 208 4,000  Level Fort Worth Center
04:05PM 33.6172 -101.8358 190° South 179 206 5,000 2,820 Climbing Fort Worth Center
04:06PM 33.5919 -101.7822 119° Southeast 220 253 8,000 2,820 Climbing Fort Worth Center
04:07PM 33.6458 -101.7350 36° Northeast 260 299 10,800 2,760 Climbing Fort Worth Center
04:08PM 33.6931 -101.6972 34° Northeast 271 312 12,800 2,760 Climbing Fort Worth Center
04:09PM 33.7569 -101.6581 27° Northeast 302 348 15,500 2,460 Climbing Fort Worth Center
04:10PM 33.8211 -101.6136 30° Northeast 269 310 17,800 1,980 Climbing Fort Worth Center
04:11PM 33.8936 -101.5669 28° Northeast 275 316 19,500 1,680 Climbing Fort Worth Center
04:12PM 33.9664 -101.5128 32° Northeast 297 342 21,200 1,560 Climbing Fort Worth Center
04:13PM 34.0450 -101.4639 27° Northeast 313 360 22,700 1,380 Climbing Fort Worth Center
04:14PM 34.1264 -101.4050 31° Northeast 322 371 24,000 1,140 Climbing Fort Worth Center
04:15PM 34.2094 -101.3486 29° Northeast 329 379 25,000 900 Climbing Fort Worth Center
04:16PM 34.2969 -101.2897 29° Northeast 351 404 25,900 840 Climbing Fort Worth Center
04:17PM 34.4350 -101.1881 31° Northeast 365 420 27,300 900 Climbing Albuquerque Center
04:18PM 34.5269 -101.1258 29° Northeast 375 432 28,300 900 Climbing Albuquerque Center
04:19PM 34.6197 -101.0611 30° Northeast 383 441 29,200 960 Climbing Albuquerque Center
04:20PM 34.7128 -100.9969 30° Northeast 385 443 30,400 1,140 Climbing Albuquerque Center
04:21PM 34.8042 -100.9328 30° Northeast 382 440 31,600 960 Climbing Albuquerque Center
04:22PM 34.8953 -100.8694 30° Northeast 380 437 32,500 900 Climbing Albuquerque Center
04:23PM 35.0047 -100.7928 30° Northeast 380 437 33,500 900 Climbing Albuquerque Center
04:24PM 35.0950 -100.7275 31° Northeast 380 437 34,400 900 Climbing Albuquerque Center
04:25PM 35.1844 -100.6661 29° Northeast 375 432 35,400 960 Climbing Albuquerque Center
04:26PM 35.2750 -100.6006 31° Northeast 373 429 36,500 720 Climbing Albuquerque Center
04:27PM 35.3647 -100.5394 29° Northeast 369 425 37,000 240 Climbing Albuquerque Center
04:28PM 35.4561 -100.4717 31° Northeast 377 434 37,000 540 Level Albuquerque Center
04:29PM 35.5519 -100.4081 28° Northeast 385 443 38,100 1,260 Climbing Albuquerque Center
04:30PM 35.6578 -100.3336 30° Northeast 371 427 39,700 1,200 Climbing Albuquerque Center
04:32PM 35.7381 -100.2731 31° Northeast 346 398 40,700 600 Climbing Albuquerque Center
04:33PM 35.8139 -100.2114 33° Northeast 330 380 41,000 120 Climbing Albuquerque Center
04:34PM 35.8956 -100.1517 31° Northeast 334 384 41,000  Level Albuquerque Center
04:35PM 35.9783 -100.0844 33° Northeast 348 400 41,000  Level Kansas City Center
04:36PM 36.0833 -100.0092 30° Northeast 357 411 41,000  Level Kansas City Center
04:37PM 36.1722 -99.9394 32° Northeast 370 426 41,000  Level Kansas City Center
04:38PM 36.2631 -99.8744 30° Northeast 373 429 41,000  Level Kansas City Center
04:39PM 36.3556 -99.8044 31° Northeast 381 438 41,000  Level Kansas City Center
04:40PM 36.4519 -99.7358 30° Northeast 390 449 41,000  Level Kansas City Center
04:41PM 36.5483 -99.6633 31° Northeast 398 458 41,000  Level Kansas City Center
04:42PM 36.6461 -99.5936 30° Northeast 401 461 41,000  Level Kansas City Center
04:43PM 36.7439 -99.5200 31° Northeast 405 466 41,000  Level Kansas City Center
04:44PM 36.8617 -99.4342 30° Northeast 403 464 41,000  Level Kansas City Center
04:45PM 36.9619 -99.3569 32° Northeast 414 476 41,000  Level Kansas City Center
04:46PM 37.0600 -99.2831 31° Northeast 411 473 41,000  Level Kansas City Center
04:47PM 37.1594 -99.2100 30° Northeast 411 473 41,000  Level Kansas City Center
04:48PM 37.2578 -99.1339 32° Northeast 414 476 41,000  Level Kansas City Center
04:49PM 37.3508 -99.0669 30° Northeast 412 474 41,000  Level Kansas City Center
04:50PM 37.4689 -98.9758 31° Northeast 413 475 41,000  Level Kansas City Center
04:51PM 37.5692 -98.9028 30° Northeast 415 478 41,000  Level Kansas City Center
04:52PM 37.6697 -98.8281 30° Northeast 419 482 41,000  Level Kansas City Center
04:53PM 37.7592 -98.7333 40° Northeast 427 491 41,000  Level Kansas City Center
04:54PM 37.8503 -98.6414 39° Northeast 420 483 41,000  Level Kansas City Center
04:55PM 37.9450 -98.5514 37° Northeast 423 487 41,000  Level Kansas City Center
04:56PM 38.0375 -98.4583 38° Northeast 422 486 41,000  Level Kansas City Center
04:57PM 38.1483 -98.3458 39° Northeast 423 487 41,000  Level Kansas City Center
04:59PM 38.2414 -98.2547 38° Northeast 419 482 41,000  Level Kansas City Center
05:00PM 38.3331 -98.1603 39° Northeast 420 483 41,000  Level Kansas City Center
05:01PM 38.4264 -98.0681 38° Northeast 420 483 41,000  Level Kansas City Center
05:02PM 38.5178 -97.9733 39° Northeast 421 484 41,000  Level Kansas City Center
05:03PM 38.6094 -97.8806 38° Northeast 420 483 41,000  Level Kansas City Center
05:04PM 38.7169 -97.7719 38° Northeast 420 483 41,000 -180 Level Kansas City Center
05:05PM 38.8053 -97.6803 39° Northeast 423 487 40,700 -480 Descending Kansas City Center
05:06PM 38.9122 -97.5728 38° Northeast 434 499 40,100 -900 Descending Kansas City Center
05:07PM 39.0044 -97.4731 40° Northeast 448 516 38,900 -1,080 Descending Kansas City Center
05:08PM 39.0961 -97.3814 38° Northeast 436 502 37,900 -1,200 Descending Kansas City Center
05:09PM 39.1972 -97.2742 39° Northeast 422 486 36,500 -1,200 Descending Kansas City Center
05:10PM 39.2844 -97.1839 39° Northeast 418 481 35,400 -1,200 Descending Kansas City Center
05:11PM 39.3881 -97.0772 38° Northeast 423 487 34,100 -1,200 Descending Kansas City Center
05:12PM 39.4761 -96.9819 40° Northeast 428 493 33,000 -1,200 Descending Kansas City Center
05:13PM 39.5761 -96.8786 39° Northeast 426 490 31,700 -1,260 Descending Kansas City Center
05:14PM 39.6631 -96.7811 41° Northeast 419 482 30,500 -1,260 Descending Kansas City Center
05:15PM 39.7636 -96.6758 39° Northeast 414 476 29,200 -1,200 Descending Kansas City Center
05:16PM 39.8406 -96.5925 40° Northeast 411 473 28,200 -1,140 Descending Kansas City Center
05:17PM 39.9233 -96.5053 39° Northeast 408 470 27,000 -1,320 Descending Minneapolis Center
05:18PM 40.0250 -96.3947 40° Northeast 400 460 25,600 -1,260 Descending Minneapolis Center
05:19PM 40.1092 -96.3036 40° Northeast 396 456 24,400 -1,200 Descending Minneapolis Center
05:20PM 40.1936 -96.2164 38° Northeast 390 449 23,200 -1,200 Descending Minneapolis Center
05:22PM 40.3547 -96.1664 13° North 369 425 21,300 -1,140 Descending Minneapolis Center
05:22PM 40.3975 -96.1775 349° North 374 430 20,900 -1,260 Descending Minneapolis Center
05:23PM 40.4503 -96.1558 17° North 367 422 20,200 -1,500 Descending Minneapolis Center
05:23PM 40.5189 -96.1608 357° North 368 423 19,400 -1,200 Descending Minneapolis Center
05:24PM 40.5497 -96.1419 25° Northeast 366 421 19,000 -1,080 Descending Minneapolis Center
05:24PM 40.6194 -96.1447 358° North 365 420 18,300 -1,320 Descending Minneapolis Center
05:25PM 40.6556 -96.1303 17° North 364 419 17,700 -1,260 Descending Minneapolis Center
05:25PM 40.7203 -96.1311 359° North 364 419 17,000 -1,140 Descending Minneapolis Center
05:26PM 40.8203 -96.1169 North 363 418 15,800 -1,200 Descending Minneapolis Center
05:27PM 40.8531 -96.1081 12° North 361 415 15,400 -1,200 Descending Minneapolis Center
05:27PM 40.9194 -96.1000 North 361 415 14,600 -1,320 Descending Minneapolis Center
05:28PM 40.9586 -96.0908 10° North 354 407 14,100 -1,200 Descending Minneapolis Center
05:28PM 41.0161 -96.0886 North 354 407 13,400 -1,020 Descending Minneapolis Center
05:29PM 41.1072 -96.0567 15° North 344 396 12,300 -2,400 Descending Minneapolis Center
05:30PM 41.2100 -96.0311 11° North 321 369 8,500 -3,240 Descending Minneapolis Center
05:32PM 41.2975 -96.0383 356° North 319 367 5,700 -2,040 Descending Minneapolis Center
05:33PM 41.3633 -96.0592 347° North 261 300 4,400 -1,260 Descending Minneapolis Center
05:34PM 41.4003 -96.0117 44° Northeast 210 242 3,200 -1,200 Descending Minneapolis Center
05:34PM 41.4025 -95.9989 77° East 152 175 2,800 -1,020 Descending Minneapolis Center
05:35PM 41.3842 -95.9675 128° Southeast 169 194 2,200 -600 Descending Minneapolis Center
05:35PM 41.3731 -95.9633 164° South 129 148 2,200 -420 Level Minneapolis Center
05:36PM 41.3517 -95.9361 136° Southeast 150 173 1,800 -600 Descending Minneapolis Center
05:36PM 41.3414 -95.9308 159° South 140 161 1,600 -600 Descending Minneapolis Center
05:37PM 41.3206 -95.9058 138° Southeast 143 165 1,200 -600 Descending Minneapolis Center